CheckWX is a tool to help pilots better visualize weather data.  It is not intended as a substitute for an official pre-flight weather briefing.

12:44:23 UTC

HELX METAR
Luxor International Airport
Luxor, Egypt
Current

2 hours ago

HELX 221100Z 33010KT CAVOK 22/05 Q1016 NOSIG
Observed
Feb-22 @ 11:00 UTC
Wind
  • 330° at 10 KTS
Visibility
10,000+ meters
Flight Rules
VFR
Cloud Levels
  • Clear skies
Temperature
22°C / 72°F
Dewpoint
C / 41°F
Humidity
33%
Altimeter
30" Hg
Pressure
1015.92 hPa
Previous

3 hours ago

HELX 221000Z 32008KT CAVOK 21/06 Q1017 NOSIG
Observed
Feb-22 @ 10:00 UTC
Wind
  • 320° at 8 KTS
Visibility
10,000+ meters
Flight Rules
VFR
Cloud Levels
  • Clear skies
Temperature
21°C / 70°F
Dewpoint
C / 43°F
Humidity
38%
Altimeter
30.03" Hg
Pressure
1016.92 hPa
Previous

4 hours ago

HELX 220900Z 01004KT CAVOK 20/05 Q1018 NOSIG
Observed
Feb-22 @ 09:00 UTC
Wind
  • 010° at 4 KTS
Visibility
10,000+ meters
Flight Rules
VFR
Cloud Levels
  • Clear skies
Temperature
20°C / 68°F
Dewpoint
C / 41°F
Humidity
38%
Altimeter
30.06" Hg
Pressure
1017.92 hPa